createdAt,value
2019-03-24T00:00:33.777Z,82.30
2019-03-24T00:03:01.378Z,82.30
2019-03-24T00:05:28.961Z,82.40
2019-03-24T00:07:56.956Z,82.40
2019-03-24T00:10:24.191Z,82.40
2019-03-24T00:12:51.774Z,82.40
2019-03-24T00:15:26.297Z,82.30
2019-03-24T00:17:46.985Z,82.40
2019-03-24T00:20:14.560Z,82.60
2019-03-24T00:22:42.180Z,82.70
2019-03-24T00:25:10.529Z,82.90
2019-03-24T00:27:38.111Z,82.90
2019-03-24T00:30:09.523Z,83.10
2019-03-24T00:32:37.117Z,83.00
2019-03-24T00:35:04.699Z,83.10
2019-03-24T00:37:33.092Z,83.40
2019-03-24T00:40:00.679Z,83.40
2019-03-24T00:42:28.260Z,83.60
2019-03-24T00:44:55.885Z,83.80
2019-03-24T00:47:23.476Z,84.20
2019-03-24T00:49:51.062Z,84.50
2019-03-24T00:52:18.675Z,84.50
2019-03-24T00:54:46.264Z,84.60
2019-03-24T00:57:13.868Z,84.60
2019-03-24T00:59:42.250Z,85.10
2019-03-24T01:02:10.607Z,85.50
2019-03-24T01:04:38.190Z,85.40
2019-03-24T01:07:06.576Z,85.80
2019-03-24T01:09:34.935Z,85.90
2019-03-24T01:12:02.523Z,85.90
2019-03-24T01:14:30.163Z,86.00
2019-03-24T01:16:57.731Z,85.90
2019-03-24T01:19:26.088Z,85.40
2019-03-24T01:21:53.704Z,85.40
2019-03-24T01:24:21.289Z,85.10
2019-03-24T01:26:49.158Z,85.00
2019-03-24T01:29:16.800Z,84.80
2019-03-24T01:31:44.396Z,84.80
2019-03-24T01:34:11.992Z,84.90
2019-03-24T01:36:40.380Z,84.80
2019-03-24T01:39:08.730Z,84.00
2019-03-24T01:41:36.318Z,84.00
2019-03-24T01:44:05.165Z,84.10
2019-03-24T01:46:32.752Z,84.00
2019-03-24T01:49:00.349Z,83.40
2019-03-24T01:51:27.988Z,83.80
2019-03-24T01:53:56.337Z,83.10
2019-03-24T01:56:23.927Z,83.10
2019-03-24T01:58:52.309Z,84.00
2019-03-24T02:01:19.923Z,83.60
2019-03-24T02:03:47.505Z,83.80
2019-03-24T02:06:15.125Z,84.20
2019-03-24T02:08:42.704Z,84.40
2019-03-24T02:11:10.291Z,84.70
2019-03-24T02:13:38.371Z,84.90
2019-03-24T02:16:09.641Z,84.90
2019-03-24T02:18:34.324Z,85.10
2019-03-24T02:21:01.942Z,85.10
2019-03-24T02:23:29.530Z,85.30
2019-03-24T02:25:57.108Z,85.30
2019-03-24T02:28:24.732Z,85.30
2019-03-24T02:30:52.318Z,85.20
2019-03-24T02:33:20.271Z,84.70
2019-03-24T02:35:47.934Z,84.70
2019-03-24T02:38:15.486Z,84.80
2019-03-24T02:40:43.067Z,84.90
2019-03-24T02:43:10.686Z,85.00
2019-03-24T02:45:38.333Z,85.10
2019-03-24T02:48:05.911Z,85.30
2019-03-24T02:50:33.551Z,84.90
2019-03-24T02:53:01.489Z,84.90
2019-03-24T02:55:29.059Z,84.90
2019-03-24T02:57:56.721Z,85.00
2019-03-24T03:00:24.565Z,85.30
2019-03-24T03:02:52.157Z,85.90
2019-03-24T03:05:19.793Z,85.90
2019-03-24T03:07:47.381Z,85.20
2019-03-24T03:10:14.966Z,85.40
2019-03-24T03:12:43.347Z,86.20
2019-03-24T03:15:11.702Z,86.80
2019-03-24T03:17:39.295Z,86.70
2019-03-24T03:20:06.924Z,87.20
2019-03-24T03:22:34.513Z,87.60
2019-03-24T03:25:02.871Z,88.40
2019-03-24T03:27:30.498Z,88.40
2019-03-24T03:29:58.089Z,88.60
2019-03-24T03:32:25.670Z,88.80
2019-03-24T03:34:54.056Z,89.20
2019-03-24T03:37:22.407Z,89.30
2019-03-24T03:39:50.004Z,89.30
2019-03-24T03:42:17.663Z,89.40
2019-03-24T03:44:46.015Z,89.60
2019-03-24T03:47:13.597Z,89.60
2019-03-24T03:49:41.214Z,89.60
2019-03-24T03:52:08.796Z,89.80
2019-03-24T03:54:36.379Z,90.00
2019-03-24T03:57:04.769Z,90.00
2019-03-24T03:59:33.186Z,90.10
2019-03-24T04:02:00.729Z,90.10
2019-03-24T04:04:29.480Z,90.20
2019-03-24T04:06:57.057Z,90.20
2019-03-24T04:09:25.414Z,90.30
2019-03-24T04:11:53.035Z,90.30
2019-03-24T04:14:20.623Z,90.30
2019-03-24T04:16:48.219Z,90.60
2019-03-24T04:19:15.838Z,90.30
2019-03-24T04:21:43.417Z,90.20
2019-03-24T04:24:11.010Z,90.20
2019-03-24T04:26:39.842Z,90.30
2019-03-24T04:29:07.844Z,90.10
2019-03-24T04:31:35.407Z,90.10
2019-03-24T04:34:03.025Z,90.10
2019-03-24T04:36:31.384Z,90.10
2019-03-24T04:38:58.976Z,90.10
2019-03-24T04:41:26.593Z,89.70
2019-03-24T04:43:54.944Z,88.60
2019-03-24T04:46:22.558Z,88.60
2019-03-24T04:48:50.221Z,88.60
2019-03-24T04:51:17.799Z,89.00
2019-03-24T04:53:45.385Z,88.20
2019-03-24T04:56:13.008Z,88.30
2019-03-24T04:58:40.593Z,88.60
2019-03-24T05:01:08.179Z,88.00
2019-03-24T05:03:35.802Z,87.30
2019-03-24T05:06:03.396Z,87.50
2019-03-24T05:08:30.960Z,87.70
2019-03-24T05:10:58.920Z,88.70
2019-03-24T05:13:26.504Z,88.10
2019-03-24T05:15:54.097Z,88.40
2019-03-24T05:18:21.728Z,88.40
2019-03-24T05:20:49.318Z,88.90
2019-03-24T05:23:17.680Z,88.50
2019-03-24T05:25:45.307Z,88.50
2019-03-24T05:28:12.943Z,87.90
2019-03-24T05:30:40.485Z,87.90
2019-03-24T05:33:08.906Z,88.60
2019-03-24T05:35:36.499Z,88.50
2019-03-24T05:38:04.092Z,87.90
2019-03-24T05:40:31.715Z,88.00
2019-03-24T05:42:59.303Z,88.40
2019-03-24T05:45:27.650Z,89.00
2019-03-24T05:47:55.344Z,89.00
2019-03-24T05:50:22.941Z,89.10
2019-03-24T05:52:50.525Z,89.40
2019-03-24T05:55:18.173Z,89.60
2019-03-24T05:57:45.761Z,89.90
2019-03-24T06:00:13.345Z,90.20
2019-03-24T06:02:41.052Z,89.90
2019-03-24T06:05:08.637Z,90.10
2019-03-24T06:07:36.225Z,89.70
2019-03-24T06:10:06.922Z,90.00
2019-03-24T06:12:35.875Z,89.30
2019-03-24T06:15:17.863Z,89.40
2019-03-24T06:17:48.164Z,89.70
2019-03-24T06:20:16.716Z,90.00
2019-03-24T06:22:45.999Z,89.60
2019-03-24T06:25:14.142Z,89.60
2019-03-24T06:27:47.238Z,89.70
2019-03-24T06:30:25.348Z,89.90
2019-03-24T06:54:46.058Z,90.00
2019-03-24T06:57:13.646Z,90.00
2019-03-24T06:59:41.238Z,90.10
2019-03-24T07:02:09.628Z,90.10
2019-03-24T07:04:37.228Z,90.10
2019-03-24T07:07:04.820Z,90.20
2019-03-24T07:09:32.443Z,90.30
2019-03-24T07:12:00.262Z,90.30
2019-03-24T07:14:27.627Z,90.40
2019-03-24T07:16:56.356Z,91.10
2019-03-24T07:19:23.958Z,91.00
2019-03-24T07:21:51.541Z,90.70
2019-03-24T07:24:19.943Z,90.80
2019-03-24T07:26:47.534Z,90.70
2019-03-24T07:29:15.138Z,90.70
2019-03-24T07:31:42.992Z,90.60
2019-03-24T07:34:10.594Z,90.40
2019-03-24T07:36:38.808Z,90.30
2019-03-24T07:39:06.488Z,90.40
2019-03-24T07:41:34.077Z,90.60
2019-03-24T07:44:01.661Z,91.00
2019-03-24T07:46:29.273Z,90.90
2019-03-24T07:48:56.857Z,90.40
2019-03-24T07:51:25.207Z,90.10
2019-03-24T07:53:52.939Z,90.00
2019-03-24T07:56:20.528Z,90.00
2019-03-24T07:58:48.107Z,90.10
2019-03-24T08:01:15.723Z,90.20
2019-03-24T08:03:43.320Z,90.20
2019-03-24T08:06:10.918Z,90.20
2019-03-24T08:08:44.276Z,90.10
2019-03-24T08:11:07.365Z,90.00
2019-03-24T08:13:35.726Z,90.10
2019-03-24T08:16:03.908Z,90.10
2019-03-24T08:18:31.524Z,89.50
2019-03-24T08:21:00.952Z,89.70
2019-03-24T08:23:28.579Z,88.80
2019-03-24T08:25:56.163Z,88.60
2019-03-24T08:28:23.750Z,88.50
2019-03-24T08:30:51.844Z,88.50
2019-03-24T08:33:20.200Z,88.20
2019-03-24T08:35:47.782Z,88.90
2019-03-24T08:38:15.419Z,88.90
2019-03-24T08:40:43.004Z,88.80
2019-03-24T08:43:10.646Z,88.20
2019-03-24T08:45:38.278Z,87.90
2019-03-24T08:48:05.872Z,87.60
2019-03-24T08:50:33.461Z,87.10
2019-03-24T08:53:01.865Z,86.80
2019-03-24T08:55:29.529Z,86.70
2019-03-24T08:57:57.110Z,87.20
2019-03-24T09:00:30.582Z,86.20
2019-03-24T09:02:53.073Z,86.00
2019-03-24T09:05:20.659Z,85.80
2019-03-24T09:07:48.297Z,85.70
2019-03-24T09:10:15.891Z,85.40
2019-03-24T09:12:43.511Z,85.20
2019-03-24T09:15:11.157Z,84.80
2019-03-24T09:17:41.120Z,84.00
2019-03-24T09:20:06.392Z,83.60
2019-03-24T09:22:34.768Z,83.00
2019-03-24T09:25:02.360Z,82.90
2019-03-24T09:27:29.985Z,83.40
2019-03-24T09:29:58.018Z,82.70
2019-03-24T09:32:25.611Z,82.20
2019-03-24T09:34:53.206Z,81.90
2019-03-24T09:37:20.847Z,81.60
2019-03-24T09:39:48.420Z,80.90
2019-03-24T09:42:16.019Z,80.60
2019-03-24T09:44:43.659Z,80.20
2019-03-24T09:47:11.574Z,79.60
2019-03-24T09:49:39.932Z,78.10
2019-03-24T09:52:07.576Z,78.10
2019-03-24T09:54:35.173Z,77.30
2019-03-24T09:57:02.790Z,77.20
2019-03-24T10:05:41.434Z,77.30
2019-03-24T10:24:26.730Z,76.10
2019-03-24T10:36:54.049Z,74.50
2019-03-24T10:40:00.182Z,73.80
2019-03-24T10:48:01.930Z,72.50
2019-03-24T10:50:43.091Z,71.80
2019-03-24T10:53:15.521Z,71.10
2019-03-24T10:55:42.141Z,71.00
2019-03-24T11:16:19.663Z,68.70
2019-03-24T11:19:03.734Z,68.80
2019-03-24T11:52:57.553Z,60.90
2019-03-24T11:55:34.517Z,60.90
2019-03-24T11:58:05.905Z,60.80
2019-03-24T12:00:32.986Z,61.40
2019-03-24T12:03:01.061Z,61.00
2019-03-24T12:05:28.620Z,60.00
2019-03-24T12:07:58.309Z,59.50
2019-03-24T12:10:26.977Z,59.20
2019-03-24T12:12:57.182Z,58.30
2019-03-24T12:15:25.156Z,58.40
2019-03-24T12:17:52.611Z,58.30
2019-03-24T12:20:20.207Z,58.50
2019-03-24T12:22:47.870Z,58.30
2019-03-24T12:25:15.560Z,58.50
2019-03-24T12:27:43.184Z,58.60
2019-03-24T12:30:11.137Z,58.70
2019-03-24T12:32:38.708Z,59.20
2019-03-24T12:35:07.151Z,60.20
2019-03-24T12:37:34.818Z,60.10
2019-03-24T12:40:02.426Z,60.90
2019-03-24T12:42:30.012Z,60.50
2019-03-24T12:44:57.669Z,60.70
2019-03-24T12:47:25.262Z,61.10
2019-03-24T12:49:52.853Z,61.30
2019-03-24T12:52:21.259Z,60.40
2019-03-24T12:54:48.882Z,60.30
2019-03-24T12:57:16.446Z,59.80
2019-03-24T12:59:44.429Z,59.40
2019-03-24T13:02:12.034Z,59.30
2019-03-24T13:04:39.643Z,59.10
2019-03-24T13:07:07.337Z,59.10
2019-03-24T13:09:34.939Z,59.00
2019-03-24T13:12:02.588Z,58.80
2019-03-24T13:14:30.836Z,58.60
2019-03-24T13:16:58.033Z,58.20
2019-03-24T13:19:25.650Z,58.30
2019-03-24T13:21:53.331Z,58.20
2019-03-24T13:24:21.327Z,58.30
2019-03-24T13:26:48.970Z,58.50
2019-03-24T13:29:16.604Z,58.60
2019-03-24T13:31:44.207Z,58.20
2019-03-24T13:34:11.795Z,58.20
2019-03-24T13:36:40.360Z,58.70
2019-03-24T13:39:08.013Z,58.40
2019-03-24T13:41:35.603Z,58.40
2019-03-24T13:44:03.393Z,58.30
2019-03-24T13:46:31.003Z,58.50
2019-03-24T13:48:58.723Z,58.60
2019-03-24T13:51:26.370Z,58.40
2019-03-24T13:53:54.070Z,58.70
2019-03-24T13:56:21.718Z,58.90
2019-03-24T13:58:50.312Z,58.70
2019-03-24T14:01:18.081Z,58.70
2019-03-24T14:03:48.130Z,58.40
2019-03-24T14:06:15.721Z,58.60
2019-03-24T14:08:43.315Z,58.80
2019-03-24T14:11:11.002Z,59.20
2019-03-24T14:13:38.729Z,59.10
2019-03-24T14:16:07.123Z,59.60
2019-03-24T14:18:34.792Z,59.00
2019-03-24T14:21:03.558Z,59.60
2019-03-24T14:23:31.204Z,60.00
2019-03-24T14:25:58.850Z,60.40
2019-03-24T14:28:26.541Z,60.80
2019-03-24T14:30:54.346Z,61.00
2019-03-24T14:33:21.880Z,61.60
2019-03-24T14:35:49.917Z,62.60
2019-03-24T14:38:17.498Z,62.90
2019-03-24T14:40:45.095Z,63.00
2019-03-24T14:43:12.752Z,63.40
2019-03-24T14:45:41.149Z,64.00
2019-03-24T14:48:08.740Z,64.00
2019-03-24T14:50:36.843Z,64.50
2019-03-24T14:53:04.473Z,64.80
2019-03-24T14:55:32.081Z,64.80
2019-03-24T14:58:01.369Z,65.10
2019-03-24T15:00:37.618Z,65.00
2019-03-24T15:03:05.252Z,65.10
2019-03-24T15:05:32.878Z,65.30
2019-03-24T15:08:00.474Z,65.60
2019-03-24T15:10:28.123Z,65.50
2019-03-24T15:12:55.725Z,65.40
2019-03-24T15:15:23.381Z,66.10
2019-03-24T15:17:51.829Z,64.90
2019-03-24T15:20:20.246Z,64.80
2019-03-24T15:22:47.847Z,64.10
2019-03-24T15:25:15.496Z,63.70
2019-03-24T15:27:43.122Z,63.30
2019-03-24T15:30:10.699Z,63.10
2019-03-24T15:32:38.392Z,62.40
2019-03-24T15:35:06.022Z,62.10
2019-03-24T15:37:33.680Z,61.80
2019-03-24T15:40:03.066Z,61.10
2019-03-24T15:42:30.651Z,61.00
2019-03-24T15:44:58.369Z,60.90
2019-03-24T15:47:26.055Z,60.90
2019-03-24T15:49:53.628Z,61.10
2019-03-24T15:52:24.051Z,61.50
2019-03-24T15:54:58.832Z,61.80
2019-03-24T15:57:26.518Z,61.50
2019-03-24T15:59:54.116Z,61.40
2019-03-24T16:02:24.968Z,61.20
2019-03-24T16:04:52.524Z,60.70
2019-03-24T16:07:20.121Z,60.60
2019-03-24T16:09:47.863Z,60.10
2019-03-24T16:12:15.476Z,59.50
2019-03-24T16:14:43.485Z,58.80
2019-03-24T16:17:11.502Z,58.20
2019-03-24T16:19:39.102Z,57.30
2019-03-24T16:22:06.835Z,57.20
2019-03-24T16:24:35.163Z,57.00
2019-03-24T16:27:03.513Z,56.70
2019-03-24T16:29:31.110Z,56.70
2019-03-24T16:31:59.365Z,56.50
2019-03-24T16:34:26.959Z,56.40
2019-03-24T16:36:54.547Z,56.30
2019-03-24T16:39:23.464Z,56.20
2019-03-24T16:41:51.055Z,56.20
2019-03-24T16:44:19.941Z,56.40
2019-03-24T16:46:47.718Z,56.60
2019-03-24T16:49:15.483Z,56.70
2019-03-24T16:51:43.993Z,57.00
2019-03-24T16:54:11.709Z,57.20
2019-03-24T16:56:39.296Z,57.30
2019-03-24T16:59:06.884Z,57.40
2019-03-24T17:01:34.532Z,57.40
2019-03-24T17:04:02.134Z,57.40
2019-03-24T17:06:29.721Z,57.50
2019-03-24T17:08:57.459Z,57.70
2019-03-24T17:11:25.059Z,57.80
2019-03-24T17:13:52.642Z,58.00
2019-03-24T17:16:21.390Z,58.20
2019-03-24T17:18:48.975Z,58.40
2019-03-24T17:21:16.570Z,58.50
2019-03-24T17:23:44.248Z,58.50
2019-03-24T17:26:12.605Z,59.20
2019-03-24T17:28:40.204Z,59.10
2019-03-24T17:31:08.237Z,59.20
2019-03-24T17:33:35.819Z,59.40
2019-03-24T17:36:03.800Z,59.40
2019-03-24T17:38:32.229Z,59.30
2019-03-24T17:40:59.823Z,59.20
2019-03-24T17:43:28.077Z,59.30
2019-03-24T17:45:55.852Z,59.60
2019-03-24T17:48:23.448Z,59.70
2019-03-24T17:50:51.796Z,58.50
2019-03-24T17:53:19.447Z,58.50
2019-03-24T17:55:47.031Z,58.10
2019-03-24T17:58:14.613Z,57.90
2019-03-24T18:00:42.353Z,57.90
2019-03-24T18:03:09.939Z,58.10
2019-03-24T18:05:37.535Z,58.30
2019-03-24T18:08:06.063Z,58.40
2019-03-24T18:10:33.646Z,58.70
2019-03-24T18:13:01.253Z,59.00
2019-03-24T18:15:28.883Z,59.30
2019-03-24T18:17:56.480Z,59.50
2019-03-24T18:20:32.716Z,59.70
2019-03-24T18:23:00.302Z,60.00
2019-03-24T18:25:27.887Z,60.40
2019-03-24T18:27:55.646Z,61.00
2019-03-24T18:30:23.249Z,60.80
2019-03-24T18:32:57.780Z,61.10
2019-03-24T18:35:25.601Z,60.80
2019-03-24T18:37:53.195Z,60.90
2019-03-24T18:40:21.550Z,63.00
2019-03-24T18:42:49.185Z,62.10
2019-03-24T18:45:16.775Z,61.90
2019-03-24T18:47:44.360Z,62.50
2019-03-24T18:50:12.758Z,62.30
2019-03-24T18:52:40.351Z,62.30
2019-03-24T18:55:07.940Z,62.60
2019-03-24T18:57:35.564Z,62.90
2019-03-24T19:00:05.628Z,63.20
2019-03-24T19:02:33.204Z,63.50
2019-03-24T19:05:01.607Z,63.50
2019-03-24T19:07:29.242Z,63.90
2019-03-24T19:09:56.792Z,62.70
2019-03-24T19:12:24.448Z,63.00
2019-03-24T19:14:52.360Z,63.10
2019-03-24T19:17:19.939Z,63.30
2019-03-24T19:19:47.604Z,63.00
2019-03-24T19:22:15.181Z,63.10
2019-03-24T19:24:42.763Z,63.20
2019-03-24T19:27:10.443Z,63.50
2019-03-24T19:29:37.985Z,63.60
2019-03-24T19:32:05.568Z,63.60
2019-03-24T19:34:33.198Z,63.90
2019-03-24T19:37:00.789Z,64.20
2019-03-24T19:39:28.375Z,64.80
2019-03-24T19:41:59.139Z,66.20
2019-03-24T19:44:26.731Z,65.80
2019-03-24T19:46:54.303Z,66.20
2019-03-24T19:49:21.935Z,66.40
2019-03-24T19:51:49.514Z,66.40
2019-03-24T19:54:17.094Z,66.30
2019-03-24T19:56:44.767Z,66.70
2019-03-24T19:59:12.342Z,66.90
2019-03-24T20:01:40.696Z,67.40
2019-03-24T20:04:08.348Z,67.40
2019-03-24T20:06:35.929Z,67.50
2019-03-24T20:09:04.340Z,67.00
2019-03-24T20:11:31.962Z,67.50
2019-03-24T20:13:59.539Z,67.10
2019-03-24T20:16:27.884Z,67.80
2019-03-24T20:18:55.509Z,67.20
2019-03-24T20:21:23.096Z,67.40
2019-03-24T20:23:50.674Z,68.20
2019-03-24T20:26:18.317Z,68.10
2019-03-24T20:28:48.998Z,68.70
2019-03-24T20:31:16.583Z,68.90
2019-03-24T20:33:44.232Z,69.20
2019-03-24T20:36:11.901Z,69.30
2019-03-24T20:38:39.549Z,69.30
2019-03-24T20:41:07.754Z,69.20
2019-03-24T20:43:36.162Z,68.80
2019-03-24T20:46:03.735Z,68.80
2019-03-24T20:48:31.507Z,68.90
2019-03-24T20:50:59.046Z,68.90
2019-03-24T20:53:26.645Z,69.00
2019-03-24T20:55:55.613Z,69.20
2019-03-24T20:58:23.195Z,69.40
2019-03-24T21:00:50.796Z,69.40
2019-03-24T21:03:18.477Z,69.60
2019-03-24T21:05:46.102Z,69.80
2019-03-24T21:08:13.697Z,70.20
2019-03-24T21:10:41.331Z,70.30
2019-03-24T21:13:09.670Z,70.70
2019-03-24T21:15:37.258Z,70.70
2019-03-24T21:18:04.906Z,70.90
2019-03-24T21:20:32.497Z,70.90
2019-03-24T21:23:00.849Z,71.10
2019-03-24T21:25:28.509Z,71.10
2019-03-24T21:27:56.104Z,71.20
2019-03-24T21:30:33.479Z,71.60
2019-03-24T21:33:01.180Z,71.60
2019-03-24T21:35:29.532Z,72.00
2019-03-24T21:37:57.932Z,72.20
2019-03-24T21:40:25.585Z,72.00
2019-03-24T21:42:53.941Z,72.20
2019-03-24T21:45:21.523Z,72.20
2019-03-24T21:47:50.849Z,72.40
2019-03-24T21:50:18.448Z,72.40
2019-03-24T21:52:46.032Z,72.50
2019-03-24T21:55:13.741Z,72.70
2019-03-24T21:57:41.315Z,72.80
2019-03-24T22:00:08.893Z,73.00
2019-03-24T22:02:39.152Z,73.00
2019-03-24T22:05:07.512Z,73.20
2019-03-24T22:07:35.106Z,73.20
2019-03-24T22:10:03.875Z,73.10
2019-03-24T22:12:31.460Z,73.10
2019-03-24T22:14:59.042Z,72.40
2019-03-24T22:17:26.742Z,72.60
2019-03-24T22:19:54.322Z,72.70
2019-03-24T22:22:21.910Z,72.80
2019-03-24T22:24:49.568Z,73.10
2019-03-24T22:27:17.924Z,73.90
2019-03-24T22:29:45.520Z,73.80
2019-03-24T22:32:13.223Z,74.00
2019-03-24T22:34:40.918Z,74.20
2019-03-24T22:37:15.749Z,74.20
2019-03-24T22:39:36.161Z,74.40
2019-03-24T22:42:04.530Z,74.40
2019-03-24T22:44:32.893Z,74.50
2019-03-24T22:47:00.580Z,74.50
2019-03-24T22:49:28.985Z,75.50
2019-03-24T22:52:06.762Z,74.70
2019-03-24T22:54:24.258Z,74.20
2019-03-24T22:56:51.925Z,74.10
2019-03-24T22:59:20.213Z,73.70
2019-03-24T23:01:47.832Z,73.70
2019-03-24T23:04:15.412Z,73.10
2019-03-24T23:06:43.022Z,72.90
2019-03-24T23:09:11.397Z,73.30
2019-03-24T23:11:39.746Z,73.90
2019-03-24T23:14:07.323Z,73.90
2019-03-24T23:16:34.954Z,74.40
2019-03-24T23:19:02.538Z,75.60
2019-03-24T23:21:31.619Z,75.50
2019-03-24T23:23:59.242Z,75.40
2019-03-24T23:26:27.141Z,75.40
2019-03-24T23:28:54.716Z,74.60
2019-03-24T23:31:22.412Z,74.00
2019-03-24T23:33:50.761Z,73.90
2019-03-24T23:36:18.343Z,73.90
2019-03-24T23:38:46.045Z,74.00
2019-03-24T23:41:13.626Z,74.60
2019-03-24T23:43:41.218Z,74.40
2019-03-24T23:46:08.919Z,74.80
2019-03-24T23:48:36.505Z,75.10
2019-03-24T23:51:04.094Z,76.00
2019-03-24T23:53:31.791Z,76.00
2019-03-24T23:56:00.144Z,75.40
2019-03-24T23:58:39.912Z,75.40
